Time;durP1;ratioP1;P1;durP2;ratioP2;P2;SDS_P1;SDS_P2;PMS_P1;PMS_P2;Temp;Humidity;BMP_temperature;BMP_pressure;BME280_temperature;BME280_humidity;BME280_pressure;Samples;Min_cycle;Max_cycle;Signal;HPM_P1;HPM_P2
2021/04/25 00:01:50;;;;;;;17.55;7.20;;;5.80;99.90;;;;;;4971334;28;20046;-75
2021/04/25 00:04:16;;;;;;;19.30;6.95;;;5.90;99.90;;;;;;4979770;28;20059;-76
2021/04/25 00:06:43;;;;;;;16.48;7.47;;;5.90;99.90;;;;;;4959367;28;20096;-76
2021/04/25 00:09:09;;;;;;;14.57;7.68;;;5.90;99.90;;;;;;4963872;28;20023;-77
2021/04/25 00:11:35;;;;;;;19.75;7.43;;;5.90;99.90;;;;;;4972534;29;20031;-79
2021/04/25 00:14:01;;;;;;;14.60;7.28;;;5.90;99.90;;;;;;4971448;28;20004;-75
2021/04/25 00:16:28;;;;;;;16.13;6.90;;;5.90;99.90;;;;;;4967066;28;20030;-78
2021/04/25 00:18:55;;;;;;;16.08;7.18;;;6.10;99.90;;;;;;4965802;28;20078;-76
2021/04/25 00:21:22;;;;;;;19.02;8.38;;;6.20;99.90;;;;;;4958404;28;20499;-76
2021/04/25 00:23:49;;;;;;;20.95;8.70;;;6.20;99.90;;;;;;4961498;28;20027;-77
2021/04/25 00:26:16;;;;;;;14.27;7.47;;;6.10;99.90;;;;;;4957672;28;20027;-76
2021/04/25 00:28:43;;;;;;;18.38;7.07;;;6.10;99.90;;;;;;4963248;28;20091;-77
2021/04/25 00:31:10;;;;;;;11.80;7.63;;;6.10;99.90;;;;;;4967648;28;20050;-78
2021/04/25 00:33:36;;;;;;;13.93;7.65;;;6.10;99.90;;;;;;4963515;28;20031;-76
2021/04/25 00:36:02;;;;;;;15.55;7.65;;;6.20;99.90;;;;;;4969434;28;20019;-76
2021/04/25 00:38:28;;;;;;;14.70;6.65;;;6.20;99.90;;;;;;4993063;28;20040;-76
2021/04/25 00:40:54;;;;;;;16.63;7.43;;;6.20;99.90;;;;;;4954928;28;20051;-76
2021/04/25 00:43:21;;;;;;;28.80;7.95;;;6.10;99.90;;;;;;4965287;28;20027;-77
2021/04/25 00:45:46;;;;;;;18.42;7.50;;;6.10;99.90;;;;;;4958550;28;20347;-77
2021/04/25 00:48:12;;;;;;;12.27;6.05;;;6.20;99.90;;;;;;4962935;28;20034;-76
2021/04/25 00:50:38;;;;;;;16.15;6.47;;;6.20;99.90;;;;;;4954782;28;20031;-76
2021/04/25 00:53:04;;;;;;;14.40;6.20;;;6.30;99.90;;;;;;4961584;28;20059;-77
2021/04/25 00:55:31;;;;;;;10.75;6.20;;;6.30;99.90;;;;;;4943782;28;20031;-76
2021/04/25 00:57:59;;;;;;;14.55;7.15;;;6.30;99.90;;;;;;4988434;28;20339;-77
2021/04/25 01:00:26;;;;;;;13.18;7.60;;;6.40;99.90;;;;;;4943490;28;20035;-77
2021/04/25 01:02:52;;;;;;;14.05;7.63;;;6.50;99.90;;;;;;4959192;28;20077;-76
2021/04/25 01:05:23;;;;;;;21.25;8.45;;;6.50;99.90;;;;;;4985166;28;20058;-77
2021/04/25 01:07:49;;;;;;;13.43;6.47;;;6.50;99.90;;;;;;4984322;28;20095;-77
2021/04/25 01:10:17;;;;;;;13.02;7.15;;;6.50;99.90;;;;;;4955617;28;20670;-76
2021/04/25 01:12:44;;;;;;;14.63;6.47;;;6.50;99.90;;;;;;4959396;28;20036;-77
2021/04/25 01:15:13;;;;;;;31.33;7.13;;;6.50;99.90;;;;;;5010493;28;20030;-76
2021/04/25 01:17:44;;;;;;;15.93;7.25;;;6.50;99.90;;;;;;4984643;28;20029;-76
2021/04/25 01:20:11;;;;;;;14.25;7.30;;;6.50;99.90;;;;;;4961160;28;20035;-77
2021/04/25 01:22:38;;;;;;;17.05;7.43;;;6.40;99.90;;;;;;4950012;28;20031;-78
2021/04/25 01:25:06;;;;;;;22.90;8.55;;;6.30;99.90;;;;;;4953464;28;20715;-78
2021/04/25 01:27:32;;;;;;;22.08;6.95;;;6.10;99.90;;;;;;4965360;28;20038;-78
2021/04/25 01:29:57;;;;;;;16.45;8.15;;;6.00;99.90;;;;;;4960469;28;20019;-76
2021/04/25 01:32:23;;;;;;;20.75;9.25;;;6.00;99.90;;;;;;4957340;28;20136;-78
2021/04/25 01:34:48;;;;;;;24.40;9.73;;;5.80;99.90;;;;;;4956624;28;20106;-77
2021/04/25 01:37:14;;;;;;;16.02;7.90;;;5.80;99.90;;;;;;4969490;28;20041;-76
2021/04/25 01:39:42;;;;;;;20.92;8.25;;;5.80;99.90;;;;;;4974009;28;20076;-78
2021/04/25 01:42:08;;;;;;;25.10;8.52;;;5.80;99.90;;;;;;4969671;28;20031;-76
2021/04/25 01:44:33;;;;;;;18.65;9.30;;;5.80;99.90;;;;;;4966339;28;20070;-77
2021/04/25 01:46:59;;;;;;;13.60;8.20;;;5.90;99.90;;;;;;4959825;28;20027;-75
2021/04/25 01:49:32;;;;;;;22.73;8.38;;;6.00;99.90;;;;;;4956551;28;20030;-76
2021/04/25 01:51:57;;;;;;;21.38;8.15;;;6.10;99.90;;;;;;4953997;28;20028;-77
2021/04/25 01:54:23;;;;;;;15.40;8.57;;;6.10;99.90;;;;;;4953000;28;20012;-76
2021/04/25 01:56:51;;;;;;;17.15;8.00;;;6.00;99.90;;;;;;4957969;28;20015;-77
2021/04/25 01:59:21;;;;;;;18.25;8.95;;;6.00;99.90;;;;;;4966289;28;20050;-78
2021/04/25 02:01:46;;;;;;;16.63;7.43;;;6.10;99.90;;;;;;4960938;28;20364;-75
2021/04/25 02:04:13;;;;;;;15.55;7.45;;;6.10;99.90;;;;;;4930208;28;20037;-78
2021/04/25 02:06:42;;;;;;;17.83;7.85;;;6.10;99.90;;;;;;4963129;28;20020;-77
2021/04/25 02:09:09;;;;;;;18.58;7.40;;;6.20;99.90;;;;;;4961491;28;20015;-74
2021/04/25 02:11:35;;;;;;;21.63;7.82;;;6.20;99.90;;;;;;4961053;28;20063;-77
2021/04/25 02:14:05;;;;;;;18.25;7.43;;;6.40;99.90;;;;;;4954601;28;20027;-76
2021/04/25 02:16:31;;;;;;;18.45;7.60;;;6.40;99.90;;;;;;4958626;28;20027;-78
2021/04/25 02:18:57;;;;;;;18.52;7.65;;;6.30;99.90;;;;;;4944237;28;20016;-77
2021/04/25 02:21:23;;;;;;;21.63;7.95;;;6.40;99.90;;;;;;4957258;28;20032;-78
2021/04/25 02:23:49;;;;;;;15.05;7.85;;;6.30;99.90;;;;;;4931306;28;20027;-77
2021/04/25 02:26:14;;;;;;;18.27;8.32;;;6.30;99.90;;;;;;4945376;28;20677;-77
2021/04/25 02:28:43;;;;;;;19.83;8.65;;;6.40;99.90;;;;;;4964421;28;20035;-77
2021/04/25 02:31:08;;;;;;;21.35;8.95;;;6.40;99.90;;;;;;4953010;28;20038;-77
2021/04/25 02:33:35;;;;;;;17.02;8.05;;;6.30;99.90;;;;;;4949153;28;20622;-76
2021/04/25 02:36:01;;;;;;;19.38;8.20;;;6.30;99.90;;;;;;4953532;28;20016;-75
2021/04/25 02:38:26;;;;;;;19.85;8.05;;;6.30;99.90;;;;;;4942893;28;20454;-78
2021/04/25 02:40:52;;;;;;;12.45;6.97;;;6.40;99.90;;;;;;4959781;28;20027;-78
2021/04/25 02:43:18;;;;;;;17.13;8.77;;;6.40;99.90;;;;;;4945361;28;20371;-77
2021/04/25 02:45:46;;;;;;;15.65;8.10;;;6.40;99.90;;;;;;4943060;28;20102;-77
2021/04/25 02:48:12;;;;;;;18.08;7.78;;;6.40;99.90;;;;;;4934448;28;20035;-77
2021/04/25 02:50:42;;;;;;;22.80;8.52;;;6.50;99.90;;;;;;4944189;28;20019;-76
2021/04/25 02:53:09;;;;;;;17.10;7.47;;;6.60;99.90;;;;;;4946501;28;20023;-76
2021/04/25 02:55:39;;;;;;;20.80;9.50;;;6.50;99.90;;;;;;4950549;28;20031;-76
2021/04/25 02:58:06;;;;;;;21.67;8.15;;;6.50;99.90;;;;;;4946333;28;20073;-80
2021/04/25 03:00:31;;;;;;;18.58;8.38;;;6.50;99.90;;;;;;4954282;28;20099;-75
2021/04/25 03:02:58;;;;;;;14.27;8.32;;;6.50;99.90;;;;;;4953797;28;20050;-77
2021/04/25 03:05:25;;;;;;;19.80;8.95;;;6.50;99.90;;;;;;4954283;28;20140;-76
2021/04/25 03:07:51;;;;;;;17.38;8.48;;;6.50;99.90;;;;;;4957377;28;20053;-77
2021/04/25 03:10:18;;;;;;;19.17;8.18;;;6.40;99.90;;;;;;4984426;28;20072;-78
2021/04/25 03:12:46;;;;;;;21.15;8.38;;;6.50;99.90;;;;;;4978584;28;20094;-78
2021/04/25 03:15:13;;;;;;;17.95;7.32;;;6.70;99.90;;;;;;4954642;28;20027;-75
2021/04/25 03:17:39;;;;;;;19.83;8.25;;;6.70;99.90;;;;;;4944970;28;20027;-76
2021/04/25 03:20:07;;;;;;;17.15;7.88;;;6.60;99.90;;;;;;4957557;28;20325;-77
2021/04/25 03:22:35;;;;;;;18.73;8.18;;;6.60;99.90;;;;;;4973234;28;20107;-78
2021/04/25 03:25:04;;;;;;;19.80;8.85;;;6.60;99.90;;;;;;4975200;28;20034;-77
2021/04/25 03:27:30;;;;;;;17.95;8.35;;;6.60;99.90;;;;;;4978480;28;20525;-77
2021/04/25 03:29:55;;;;;;;26.70;9.30;;;6.50;99.90;;;;;;4968023;28;20092;-76
2021/04/25 03:32:21;;;;;;;14.70;8.13;;;6.50;99.90;;;;;;4961296;28;20015;-78
2021/04/25 03:34:48;;;;;;;15.75;7.43;;;6.60;99.90;;;;;;4976977;28;20031;-77
2021/04/25 03:37:16;;;;;;;17.90;8.68;;;6.60;99.90;;;;;;4955506;28;20038;-77
2021/04/25 03:39:42;;;;;;;18.58;8.00;;;6.50;99.90;;;;;;4956044;28;20023;-78
2021/04/25 03:42:08;;;;;;;19.83;7.78;;;6.40;99.90;;;;;;4956714;28;20053;-77
2021/04/25 03:44:34;;;;;;;16.55;7.72;;;6.40;99.90;;;;;;5000239;28;20563;-77
2021/04/25 03:47:00;;;;;;;14.10;7.22;;;6.50;99.90;;;;;;4995582;28;20468;-77
2021/04/25 03:49:26;;;;;;;19.70;8.00;;;6.40;99.90;;;;;;4955866;28;20050;-77
2021/04/25 03:51:54;;;;;;;15.10;6.93;;;6.50;99.90;;;;;;4996759;28;20036;-77
2021/04/25 03:54:22;;;;;;;18.92;8.00;;;6.50;99.90;;;;;;4965243;28;20054;-77
2021/04/25 03:56:47;;;;;;;14.77;7.35;;;6.50;99.90;;;;;;4988565;28;20036;-76
2021/04/25 03:59:13;;;;;;;20.95;8.27;;;6.50;99.90;;;;;;4979236;28;20039;-75
2021/04/25 04:01:38;;;;;;;16.98;8.15;;;6.50;99.90;;;;;;4956750;28;20274;-77
2021/04/25 04:04:05;;;;;;;21.63;7.97;;;6.50;99.90;;;;;;4994220;28;20029;-76
2021/04/25 04:06:31;;;;;;;12.80;6.40;;;6.50;99.90;;;;;;4982436;28;20033;-77
2021/04/25 04:08:56;;;;;;;16.75;6.57;;;6.50;99.90;;;;;;4965748;28;20031;-74
2021/04/25 04:11:22;;;;;;;12.65;7.00;;;6.50;99.90;;;;;;4964399;28;20030;-78
2021/04/25 04:13:48;;;;;;;13.98;7.05;;;6.40;99.90;;;;;;4964403;28;20023;-76
2021/04/25 04:16:16;;;;;;;18.98;6.65;;;6.50;99.90;;;;;;4967309;28;20233;-76
2021/04/25 04:18:42;;;;;;;17.52;7.07;;;6.50;99.90;;;;;;4964622;28;20032;-77
2021/04/25 04:21:08;;;;;;;16.17;7.82;;;6.60;99.90;;;;;;4960348;28;20058;-77
2021/04/25 04:23:33;;;;;;;18.52;6.97;;;6.50;99.90;;;;;;4948488;28;20163;-78
2021/04/25 04:26:01;;;;;;;22.27;7.38;;;6.40;99.90;;;;;;4957704;28;20027;-78
2021/04/25 04:28:26;;;;;;;14.68;6.47;;;6.40;99.90;;;;;;4959015;28;20037;-76
2021/04/25 04:30:52;;;;;;;17.80;6.65;;;6.50;99.90;;;;;;4957193;28;20059;-77
2021/04/25 04:33:18;;;;;;;16.17;7.03;;;6.50;99.90;;;;;;4954747;28;20023;-77
2021/04/25 04:35:43;;;;;;;14.18;7.25;;;6.50;99.90;;;;;;4956213;28;20034;-75
2021/04/25 04:38:09;;;;;;;15.95;6.93;;;6.40;99.90;;;;;;4958134;29;20043;-77
2021/04/25 04:40:35;;;;;;;12.50;6.55;;;6.50;99.90;;;;;;5014289;28;20051;-78
2021/04/25 04:43:01;;;;;;;20.63;6.88;;;6.50;99.90;;;;;;4961417;28;20023;-77
2021/04/25 04:45:27;;;;;;;17.23;6.50;;;6.40;99.90;;;;;;4942549;28;20086;-76
2021/04/25 04:47:52;;;;;;;15.43;7.30;;;6.40;99.90;;;;;;4947032;28;20478;-75
2021/04/25 04:50:23;;;;;;;13.75;7.10;;;6.40;99.90;;;;;;4969673;28;20104;-77
2021/04/25 04:52:49;;;;;;;20.92;6.97;;;6.40;99.90;;;;;;4938845;29;20434;-76
2021/04/25 04:55:19;;;;;;;14.95;7.03;;;6.40;99.90;;;;;;4979268;28;20040;-76
2021/04/25 04:57:46;;;;;;;16.58;6.25;;;6.40;99.90;;;;;;4963832;28;20054;-77
2021/04/25 05:00:13;;;;;;;12.88;5.95;;;6.40;99.90;;;;;;4966159;28;20098;-76
2021/04/25 05:02:39;;;;;;;16.10;6.53;;;6.40;99.90;;;;;;4970745;28;20031;-76
2021/04/25 05:05:07;;;;;;;14.20;6.30;;;6.40;99.90;;;;;;4965553;28;20015;-77
2021/04/25 05:07:35;;;;;;;14.55;6.68;;;6.60;99.90;;;;;;4962941;28;20049;-76
2021/04/25 05:10:01;;;;;;;16.17;6.43;;;6.60;99.90;;;;;;4962943;28;20027;-77
2021/04/25 05:12:27;;;;;;;18.00;6.68;;;6.70;99.90;;;;;;4956599;28;20511;-76
2021/04/25 05:14:53;;;;;;;14.35;6.18;;;6.50;99.90;;;;;;4965978;28;20020;-77
2021/04/25 05:17:18;;;;;;;17.85;6.90;;;6.50;99.90;;;;;;4955347;28;20082;-75
2021/04/25 05:19:46;;;;;;;11.52;5.85;;;6.50;99.90;;;;;;4963642;28;20039;-75
2021/04/25 05:22:13;;;;;;;12.52;6.03;;;6.40;99.90;;;;;;4962356;28;20031;-75
2021/04/25 05:24:38;;;;;;;15.57;6.40;;;6.50;99.90;;;;;;4963347;28;20034;-76
2021/04/25 05:27:04;;;;;;;17.42;6.45;;;6.60;99.90;;;;;;4960795;28;20027;-74
2021/04/25 05:29:30;;;;;;;18.45;7.30;;;6.50;99.90;;;;;;4967081;28;20419;-77
2021/04/25 05:31:59;;;;;;;13.88;6.88;;;6.50;99.90;;;;;;4959129;28;20038;-76
2021/04/25 05:34:25;;;;;;;17.08;6.60;;;6.60;99.90;;;;;;4958165;28;20053;-76
2021/04/25 05:36:51;;;;;;;17.73;6.57;;;6.50;99.90;;;;;;4958825;28;20132;-80
2021/04/25 05:39:16;;;;;;;14.13;6.32;;;6.60;99.90;;;;;;4973882;28;20081;-76
2021/04/25 05:41:43;;;;;;;10.70;4.82;;;6.50;99.90;;;;;;5031570;28;20040;-75
2021/04/25 05:44:09;;;;;;;9.13;4.05;;;6.50;99.90;;;;;;4995221;28;20023;-78
2021/04/25 05:46:35;;;;;;;15.18;4.47;;;6.60;99.90;;;;;;5020956;28;20038;-76
2021/04/25 05:49:01;;;;;;;10.20;4.00;;;6.70;99.90;;;;;;4986939;28;20042;-76
2021/04/25 05:51:27;;;;;;;10.95;3.00;;;6.60;99.90;;;;;;4958798;28;20316;-77
2021/04/25 05:53:52;;;;;;;8.77;2.80;;;6.60;99.90;;;;;;4953411;29;20058;-74
2021/04/25 05:56:20;;;;;;;6.00;2.33;;;6.60;99.90;;;;;;4989424;28;20027;-77
2021/04/25 05:58:47;;;;;;;10.82;2.47;;;6.70;99.90;;;;;;4962182;28;20483;-75
2021/04/25 06:01:13;;;;;;;8.98;2.50;;;6.70;99.90;;;;;;4961369;28;20086;-76
2021/04/25 06:03:42;;;;;;;5.55;2.50;;;6.80;99.90;;;;;;4965057;28;20518;-78
2021/04/25 06:06:10;;;;;;;9.38;2.53;;;6.80;99.90;;;;;;4970187;28;20045;-78
2021/04/25 06:08:36;;;;;;;13.25;3.15;;;6.80;99.90;;;;;;4969888;28;20027;-76
2021/04/25 06:11:02;;;;;;;9.10;2.75;;;6.80;99.90;;;;;;4967424;28;20027;-78
2021/04/25 06:13:28;;;;;;;6.13;2.47;;;6.80;99.90;;;;;;4969093;28;20011;-77
2021/04/25 06:15:54;;;;;;;7.15;2.72;;;6.80;99.90;;;;;;4954679;28;20080;-76
2021/04/25 06:18:21;;;;;;;7.25;3.05;;;6.70;99.90;;;;;;4964980;28;20031;-74
2021/04/25 06:20:50;;;;;;;6.32;2.08;;;6.60;99.90;;;;;;4959035;28;20107;-74
2021/04/25 06:23:16;;;;;;;9.65;2.55;;;6.70;99.90;;;;;;4966630;28;20023;-77
2021/04/25 06:25:45;;;;;;;6.38;2.55;;;6.70;99.90;;;;;;4979539;28;20082;-79
2021/04/25 06:28:10;;;;;;;9.10;3.35;;;6.70;99.90;;;;;;4984863;28;20079;-76
2021/04/25 06:30:39;;;;;;;6.05;2.40;;;6.70;99.90;;;;;;4982155;28;20404;-76
2021/04/25 06:33:08;;;;;;;9.40;2.60;;;6.70;99.90;;;;;;4951509;29;20023;-77
2021/04/25 06:35:33;;;;;;;6.80;1.95;;;6.70;99.90;;;;;;4956496;28;20019;-78
2021/04/25 06:38:29;;;;;;;8.18;2.08;;;6.80;99.90;;;;;;4953603;28;20019;-76
2021/04/25 06:40:54;;;;;;;7.82;2.13;;;6.80;99.90;;;;;;4988261;28;20018;-78
2021/04/25 06:43:20;;;;;;;7.65;2.50;;;6.80;99.90;;;;;;4957868;28;20098;-77
2021/04/25 06:45:46;;;;;;;5.10;2.20;;;6.80;99.90;;;;;;5028579;28;20046;-77
2021/04/25 06:48:14;;;;;;;7.72;2.38;;;6.90;99.90;;;;;;5031584;28;20037;-80
2021/04/25 06:50:39;;;;;;;6.97;2.20;;;7.00;99.90;;;;;;4994906;28;20038;-80
2021/04/25 06:53:05;;;;;;;6.85;2.13;;;7.00;99.90;;;;;;4983452;28;20271;-77
2021/04/25 06:55:33;;;;;;;11.63;2.60;;;7.00;99.90;;;;;;4953232;28;20115;-75
2021/04/25 06:58:00;;;;;;;6.75;2.30;;;6.90;99.90;;;;;;4957261;29;20398;-77
2021/04/25 07:00:26;;;;;;;9.45;2.50;;;6.90;99.90;;;;;;4950012;29;20050;-77
2021/04/25 07:02:55;;;;;;;8.95;2.90;;;6.80;99.90;;;;;;4957320;29;20035;-79
2021/04/25 07:05:22;;;;;;;9.57;2.55;;;6.80;99.90;;;;;;4962931;28;20169;-77
2021/04/25 07:07:50;;;;;;;9.02;2.78;;;6.90;99.90;;;;;;4952408;28;20095;-78
2021/04/25 07:10:16;;;;;;;10.95;2.78;;;7.10;99.90;;;;;;4974569;28;20021;-78
2021/04/25 07:12:42;;;;;;;5.68;3.13;;;7.00;99.90;;;;;;4960773;28;20023;-76
2021/04/25 07:15:10;;;;;;;9.68;2.88;;;7.00;99.90;;;;;;4945835;28;20036;-76
2021/04/25 07:17:36;;;;;;;7.40;2.97;;;6.80;99.90;;;;;;4944023;28;20093;-78
2021/04/25 07:20:06;;;;;;;21.30;3.80;;;6.90;99.90;;;;;;4956790;28;20032;-77
2021/04/25 07:22:34;;;;;;;8.32;2.35;;;6.90;99.90;;;;;;4954067;28;20040;-77
2021/04/25 07:25:00;;;;;;;12.80;2.90;;;7.00;99.90;;;;;;4987785;28;20015;-75
2021/04/25 07:27:26;;;;;;;10.27;2.78;;;6.90;99.90;;;;;;4999641;28;20035;-76
2021/04/25 07:29:52;;;;;;;5.28;2.47;;;7.00;99.90;;;;;;4958342;28;20423;-76
2021/04/25 07:32:18;;;;;;;9.52;2.22;;;7.00;99.90;;;;;;4964808;28;20008;-77
2021/04/25 07:34:44;;;;;;;6.13;2.47;;;7.00;99.90;;;;;;4948966;28;20114;-75
2021/04/25 07:37:10;;;;;;;6.82;2.80;;;7.10;99.90;;;;;;4949308;28;20107;-75
2021/04/25 07:39:38;;;;;;;8.50;3.10;;;7.00;99.90;;;;;;4956553;28;20082;-75
2021/04/25 07:42:06;;;;;;;8.82;2.63;;;7.10;99.90;;;;;;4962090;28;20024;-76
2021/04/25 07:44:33;;;;;;;8.73;2.72;;;7.10;99.90;;;;;;4964791;28;20035;-77
2021/04/25 07:46:59;;;;;;;11.05;1.98;;;7.00;99.90;;;;;;4953280;28;20445;-74
2021/04/25 07:49:24;;;;;;;8.95;2.42;;;7.00;99.90;;;;;;5015916;28;20090;-77
2021/04/25 07:51:51;;;;;;;8.65;2.55;;;7.10;99.90;;;;;;4959627;28;20125;-76
2021/04/25 07:54:17;;;;;;;12.82;2.30;;;7.10;99.90;;;;;;4995487;28;20479;-76
2021/04/25 07:56:43;;;;;;;4.63;1.90;;;7.10;99.90;;;;;;4953119;28;20466;-74
2021/04/25 07:59:08;;;;;;;7.22;1.98;;;7.10;99.90;;;;;;4963601;28;20023;-77
2021/04/25 08:01:34;;;;;;;7.90;2.15;;;7.10;99.90;;;;;;4955884;28;20038;-73
2021/04/25 08:03:59;;;;;;;6.72;2.25;;;7.10;99.90;;;;;;4942022;28;20070;-75
2021/04/25 08:06:26;;;;;;;5.53;2.30;;;7.20;99.90;;;;;;4951528;28;20031;-76
2021/04/25 08:08:53;;;;;;;6.22;2.28;;;7.20;99.90;;;;;;4954086;28;20007;-75
2021/04/25 08:11:19;;;;;;;7.38;2.28;;;7.10;99.90;;;;;;4951055;29;20029;-76
2021/04/25 08:13:46;;;;;;;3.97;1.67;;;7.20;99.90;;;;;;4952843;28;20660;-77
2021/04/25 08:16:11;;;;;;;9.10;1.80;;;7.30;99.90;;;;;;4962757;28;20062;-77
2021/04/25 08:18:37;;;;;;;5.68;2.20;;;7.20;99.90;;;;;;4957729;28;20024;-76
2021/04/25 08:21:03;;;;;;;14.38;2.20;;;7.30;99.90;;;;;;4949122;29;20039;-76
2021/04/25 08:23:29;;;;;;;8.05;2.00;;;7.50;99.90;;;;;;4957461;28;20074;-77
2021/04/25 08:25:54;;;;;;;5.53;2.10;;;7.50;99.90;;;;;;4991164;28;20036;-77
2021/04/25 08:28:20;;;;;;;9.95;2.38;;;7.60;99.90;;;;;;4971445;28;20072;-74
2021/04/25 08:30:46;;;;;;;11.18;2.30;;;7.50;99.90;;;;;;4962157;28;20027;-74
2021/04/25 08:33:13;;;;;;;9.77;2.22;;;7.40;99.90;;;;;;4959265;28;20031;-79
2021/04/25 08:35:38;;;;;;;6.25;2.10;;;7.40;99.90;;;;;;4968625;28;20028;-75
2021/04/25 08:38:05;;;;;;;5.68;1.88;;;7.50;99.90;;;;;;4954917;29;20047;-75
2021/04/25 08:40:33;;;;;;;5.50;2.88;;;7.40;99.90;;;;;;4965366;28;20696;-76
2021/04/25 08:42:59;;;;;;;9.55;2.20;;;7.40;99.90;;;;;;4961346;28;20028;-78
2021/04/25 08:45:27;;;;;;;8.48;2.42;;;7.40;99.90;;;;;;4953969;28;20023;-77
2021/04/25 08:47:58;;;;;;;8.32;1.80;;;7.50;99.90;;;;;;4949773;28;20043;-79
2021/04/25 08:50:30;;;;;;;13.75;2.58;;;7.70;99.90;;;;;;4953565;29;20024;-78
2021/04/25 08:52:57;;;;;;;6.38;1.83;;;7.90;99.90;;;;;;4952144;28;20043;-77
2021/04/25 08:55:23;;;;;;;1.55;1.30;;;7.90;99.90;;;;;;4955667;28;20027;-78
2021/04/25 08:57:50;;;;;;;12.23;1.70;;;7.90;99.90;;;;;;4962567;28;20019;-78
2021/04/25 09:00:16;;;;;;;6.40;1.88;;;8.00;99.90;;;;;;4960521;28;20028;-76
2021/04/25 09:02:42;;;;;;;9.82;1.88;;;7.90;99.90;;;;;;4952752;28;20019;-75
2021/04/25 09:05:08;;;;;;;5.28;1.58;;;7.90;99.90;;;;;;4958666;28;20075;-81
2021/04/25 09:07:34;;;;;;;5.60;1.98;;;7.80;99.90;;;;;;4954276;28;20024;-79
2021/04/25 09:10:03;;;;;;;6.30;2.05;;;7.90;99.90;;;;;;4962199;28;20046;-77
2021/04/25 09:12:43;;;;;;;8.32;1.85;;;7.90;99.90;;;;;;4951547;28;20035;-75
2021/04/25 09:15:12;;;;;;;8.30;1.63;;;8.10;99.90;;;;;;4952703;28;20031;-76
2021/04/25 09:18:05;;;;;;;8.55;1.50;;;8.10;99.90;;;;;;4954122;29;20062;-76
2021/04/25 09:20:36;;;;;;;;;;;7.80;99.90;;;;;;4941258;28;20031;-76
2021/04/25 09:23:02;;;;;;;4.80;1.20;;;7.90;99.90;;;;;;4943804;28;19963;-77
2021/04/25 09:25:31;;;;;;;7.55;1.33;;;8.00;99.90;;;;;;4951507;28;20479;-76
2021/04/25 09:28:17;;;;;;;9.50;2.25;;;8.40;99.90;;;;;;4946458;28;20075;-75
2021/04/25 09:31:05;;;;;;;9.95;2.03;;;8.30;99.90;;;;;;4956142;28;20106;-77
2021/04/25 09:33:56;;;;;;;10.15;1.77;;;8.40;99.90;;;;;;4945747;28;20015;-75
2021/04/25 09:36:30;;;;;;;7.60;1.85;;;8.60;99.90;;;;;;4944889;29;20118;-77
2021/04/25 09:39:12;;;;;;;8.60;1.50;;;8.60;99.90;;;;;;4950207;28;20059;-79
2021/04/25 09:41:38;;;;;;;6.68;1.33;;;8.90;99.90;;;;;;4964806;28;20091;-77
2021/04/25 09:44:04;;;;;;;6.82;1.50;;;9.00;99.90;;;;;;4963416;28;20051;-78
2021/04/25 09:46:52;;;;;;;2.22;1.38;;;9.10;99.90;;;;;;4966683;28;20027;-78
2021/04/25 09:49:36;;;;;;;7.60;1.45;;;8.90;99.90;;;;;;4954780;28;20016;-79
2021/04/25 09:52:02;;;;;;;9.38;2.00;;;9.10;99.70;;;;;;4956590;29;20047;-75
2021/04/25 09:54:28;;;;;;;5.45;1.13;;;8.90;99.60;;;;;;4968757;28;20034;-77
2021/04/25 09:56:56;;;;;;;9.27;2.00;;;8.80;99.90;;;;;;4967449;28;20027;-77
2021/04/25 09:59:22;;;;;;;7.85;1.20;;;9.00;99.50;;;;;;4957549;28;20015;-78
2021/04/25 10:01:48;;;;;;;5.80;1.30;;;9.40;99.90;;;;;;4966281;28;20027;-76
2021/04/25 10:04:37;;;;;;;6.47;1.50;;;9.90;98.80;;;;;;4954305;28;20392;-77
2021/04/25 10:07:07;;;;;;;8.82;1.55;;;9.70;98.40;;;;;;4950395;28;20043;-77
2021/04/25 10:09:35;;;;;;;6.82;1.42;;;9.80;98.50;;;;;;4972890;28;20023;-76
2021/04/25 10:12:03;;;;;;;9.45;2.08;;;9.20;97.90;;;;;;4961885;28;20051;-76
2021/04/25 10:14:31;;;;;;;5.85;1.30;;;9.20;99.20;;;;;;4954286;28;20096;-77
2021/04/25 10:16:58;;;;;;;15.25;2.10;;;9.40;98.90;;;;;;4954031;29;20058;-77
2021/04/25 10:19:24;;;;;;;9.90;1.73;;;9.50;98.50;;;;;;4952821;28;20031;-77
2021/04/25 10:21:51;;;;;;;12.07;1.45;;;9.60;97.60;;;;;;4964883;28;20043;-74
2021/04/25 10:24:21;;;;;;;4.45;1.48;;;9.50;98.00;;;;;;4962489;28;20261;-75
2021/04/25 10:26:57;;;;;;;7.75;1.13;;;9.50;98.20;;;;;;4964440;28;20031;-79
2021/04/25 10:29:35;;;;;;;9.52;1.45;;;9.40;97.80;;;;;;4958936;28;20070;-75
2021/04/25 10:32:04;;;;;;;8.35;1.50;;;9.00;98.00;;;;;;4966154;28;20042;-77
2021/04/25 10:34:29;;;;;;;11.90;1.92;;;9.30;98.90;;;;;;4956265;28;20039;-76
2021/04/25 10:37:01;;;;;;;9.52;1.90;;;9.30;98.50;;;;;;4942718;28;20545;-76
2021/04/25 10:39:56;;;;;;;3.25;1.17;;;9.20;98.90;;;;;;4947416;28;20091;-76
2021/04/25 10:42:31;;;;;;;6.90;1.90;;;9.30;99.20;;;;;;4956214;28;20019;-76
2021/04/25 10:44:57;;;;;;;15.35;2.20;;;9.40;98.50;;;;;;5024373;28;20039;-77
2021/04/25 10:47:36;;;;;;;7.18;1.50;;;9.60;97.60;;;;;;4956246;28;20031;-75
2021/04/25 10:50:16;;;;;;;6.07;1.60;;;9.40;98.20;;;;;;4976019;28;20018;-75
2021/04/25 10:52:48;;;;;;;8.38;1.30;;;9.40;99.10;;;;;;4946373;28;20095;-76
2021/04/25 10:55:14;;;;;;;5.68;1.38;;;9.50;98.20;;;;;;4979654;28;20132;-77
2021/04/25 10:58:07;;;;;;;9.65;1.70;;;9.70;97.80;;;;;;4951207;28;20024;-80
2021/04/25 11:00:42;;;;;;;;;;;10.00;96.60;;;;;;4944650;28;20036;-77
2021/04/25 11:03:21;;;;;;;8.07;1.40;;;9.60;96.40;;;;;;4968764;28;19906;-77
2021/04/25 11:05:50;;;;;;;7.65;1.67;;;9.90;97.40;;;;;;4952853;28;20487;-77
2021/04/25 11:08:16;;;;;;;13.95;1.92;;;10.10;96.50;;;;;;4952189;28;20037;-77
2021/04/25 11:10:56;;;;;;;10.98;1.58;;;10.10;96.60;;;;;;4951636;28;20561;-79
2021/04/25 11:13:46;;;;;;;6.47;1.58;;;9.80;96.30;;;;;;4965214;28;20023;-76
2021/04/25 11:16:16;;;;;;;3.78;1.77;;;9.70;96.50;;;;;;4952182;28;20020;-76
2021/04/25 11:19:09;;;;;;;6.63;1.55;;;9.70;96.60;;;;;;4963412;28;20031;-72
2021/04/25 11:21:45;;;;;;;13.13;2.40;;;9.70;95.70;;;;;;4938689;28;20088;-76
2021/04/25 11:24:10;;;;;;;5.60;1.42;;;9.70;96.50;;;;;;4965210;28;20030;-77
2021/04/25 11:29:07;;;;;;;8.00;1.55;;;9.90;97.50;;;;;;4964693;28;20028;-77
2021/04/25 11:34:26;;;;;;;9.57;1.70;;;9.60;97.20;;;;;;4966123;28;20027;-76
2021/04/25 11:37:01;;;;;;;6.00;1.25;;;9.60;97.20;;;;;;4974805;28;20023;-75
2021/04/25 11:39:27;;;;;;;8.30;1.15;;;9.60;97.30;;;;;;4959368;28;20047;-74
2021/04/25 11:41:53;;;;;;;4.70;1.52;;;9.70;97.00;;;;;;4960082;28;20507;-75
2021/04/25 11:44:27;;;;;;;7.43;1.20;;;9.70;96.60;;;;;;4950823;28;20051;-75
2021/04/25 11:46:54;;;;;;;7.50;1.42;;;9.60;97.30;;;;;;4948764;28;20028;-76
2021/04/25 11:49:34;;;;;;;4.13;1.20;;;9.90;96.90;;;;;;4961437;28;20028;-77
2021/04/25 11:52:12;;;;;;;4.00;1.45;;;10.20;95.40;;;;;;4950980;28;20488;-76
2021/04/25 11:54:43;;;;;;;4.32;1.33;;;10.20;95.80;;;;;;4966442;28;20027;-76
2021/04/25 11:57:20;;;;;;;7.50;1.90;;;10.30;95.80;;;;;;4948295;28;20032;-75
2021/04/25 12:00:05;;;;;;;7.47;1.40;;;10.50;96.30;;;;;;4947480;28;20757;-77
2021/04/25 12:02:38;;;;;;;8.25;1.50;;;10.00;96.40;;;;;;4942621;28;20023;-78
2021/04/25 12:05:23;;;;;;;;;;;10.40;96.10;;;;;;4956833;29;20043;-77
2021/04/25 12:07:53;;;;;;;4.88;1.33;;;10.10;95.00;;;;;;4950900;28;19932;-75
2021/04/25 12:10:31;;;;;;;4.15;1.48;;;10.20;94.90;;;;;;4984726;28;20023;-74
2021/04/25 12:13:16;;;;;;;5.70;1.40;;;10.10;95.00;;;;;;4945391;28;20526;-76
2021/04/25 12:15:54;;;;;;;16.17;1.92;;;10.20;94.90;;;;;;4965853;28;20026;-75
2021/04/25 12:18:24;;;;;;;5.20;1.60;;;10.80;94.20;;;;;;4967051;28;20034;-77
2021/04/25 12:20:53;;;;;;;5.80;1.55;;;11.10;93.20;;;;;;4961313;28;20118;-78
2021/04/25 12:23:24;;;;;;;10.10;2.00;;;10.80;93.30;;;;;;4962802;28;20107;-76
2021/04/25 12:25:51;;;;;;;4.72;2.13;;;10.40;94.60;;;;;;4956692;28;20023;-77
2021/04/25 12:28:18;;;;;;;4.53;1.48;;;10.70;94.20;;;;;;4964355;28;20039;-78
2021/04/25 12:30:46;;;;;;;6.32;1.60;;;10.70;92.70;;;;;;4962248;28;20476;-75
2021/04/25 12:33:14;;;;;;;7.03;1.75;;;10.40;94.30;;;;;;4985980;28;20639;-74
2021/04/25 12:35:45;;;;;;;5.43;1.42;;;10.50;94.10;;;;;;4948579;28;20526;-76
2021/04/25 12:38:17;;;;;;;8.35;1.75;;;10.60;94.20;;;;;;4959129;28;20030;-75
2021/04/25 12:40:43;;;;;;;5.95;1.30;;;10.50;94.50;;;;;;4962370;28;20063;-75
2021/04/25 12:43:10;;;;;;;7.43;1.67;;;10.60;93.40;;;;;;4983797;28;20494;-77
2021/04/25 12:45:38;;;;;;;11.70;2.13;;;10.90;93.90;;;;;;4957586;28;20031;-76
2021/04/25 12:48:24;;;;;;;11.05;1.55;;;10.30;94.40;;;;;;4946850;28;20559;-78
2021/04/25 12:51:20;;;;;;;7.30;1.58;;;10.40;94.60;;;;;;4963579;28;20541;-73
2021/04/25 12:53:58;;;;;;;13.95;2.47;;;11.40;93.00;;;;;;4980032;28;20052;-76
2021/04/25 12:56:33;;;;;;;4.13;1.58;;;10.60;92.70;;;;;;4950076;28;20020;-74
2021/04/25 12:59:31;;;;;;;8.73;1.35;;;10.30;94.00;;;;;;4954445;28;20020;-73
2021/04/25 13:01:57;;;;;;;14.13;1.70;;;10.20;94.00;;;;;;4947015;28;20023;-76
2021/04/25 13:04:37;;;;;;;6.82;1.50;;;10.40;94.50;;;;;;4946954;28;20411;-77